Time;durP1;ratioP1;P1;durP2;ratioP2;P2;SDS_P1;SDS_P2;PMS_P1;PMS_P2;Temp;Humidity;BMP_temperature;BMP_pressure;BME280_temperature;BME280_humidity;BME280_pressure;Samples;Min_cycle;Max_cycle;Signal;HPM_P1;HPM_P2
2023/07/20 00:00:15;;;;;;;4.93;1.80;;;;;;;;;;5010772;28;20665;-86
2023/07/20 00:02:42;;;;;;;5.30;1.23;;;;;;;;;;5010120;28;20241;-87
2023/07/20 00:05:09;;;;;;;3.15;1.63;;;;;;;;;;5010359;28;20249;-86
2023/07/20 00:07:36;;;;;;;2.83;1.20;;;;;;;;;;5010753;28;20207;-87
2023/07/20 00:10:03;;;;;;;1.75;1.20;;;;;;;;;;5010395;28;20201;-86
2023/07/20 00:12:30;;;;;;;7.10;1.92;;;;;;;;;;5010709;28;20221;-87
2023/07/20 00:14:58;;;;;;;6.93;1.25;;;;;;;;;;5010831;28;20208;-87
2023/07/20 00:17:27;;;;;;;0.98;0.98;;;;;;;;;;5009941;28;20655;-87
2023/07/20 00:19:55;;;;;;;2.33;1.02;;;;;;;;;;5010507;28;20196;-86
2023/07/20 00:22:23;;;;;;;3.03;1.30;;;;;;;;;;5010434;28;20255;-87
2023/07/20 00:24:50;;;;;;;4.97;1.25;;;;;;;;;;5010501;28;20204;-87
2023/07/20 00:27:17;;;;;;;1.60;1.30;;;;;;;;;;5010708;28;20197;-87
2023/07/20 00:29:44;;;;;;;1.27;0.90;;;;;;;;;;5014548;28;20204;-86
2023/07/20 00:32:11;;;;;;;2.30;1.42;;;;;;;;;;5013658;28;20215;-86
2023/07/20 00:34:39;;;;;;;1.63;1.20;;;;;;;;;;5014721;28;20572;-86
2023/07/20 00:37:06;;;;;;;1.33;1.23;;;;;;;;;;5014580;28;20255;-88
2023/07/20 00:39:33;;;;;;;2.80;1.35;;;;;;;;;;5014119;28;20211;-88
2023/07/20 00:42:01;;;;;;;1.25;1.25;;;;;;;;;;5015344;28;20560;-87
2023/07/20 00:44:28;;;;;;;1.25;1.25;;;;;;;;;;5015107;28;20292;-87
2023/07/20 00:46:56;;;;;;;3.72;1.27;;;;;;;;;;5014198;28;20475;-87
2023/07/20 00:49:23;;;;;;;4.97;1.25;;;;;;;;;;5015066;28;20205;-86
2023/07/20 00:51:52;;;;;;;1.95;1.25;;;;;;;;;;5014742;28;20209;-87
2023/07/20 00:54:19;;;;;;;1.13;1.13;;;;;;;;;;5013794;28;20287;-87
2023/07/20 00:56:46;;;;;;;1.38;1.35;;;;;;;;;;5015855;28;20197;-87
2023/07/20 00:59:14;;;;;;;5.25;1.55;;;;;;;;;;5016591;28;20223;-87
2023/07/20 01:01:41;;;;;;;9.45;1.77;;;;;;;;;;5015068;28;20279;-87
2023/07/20 01:04:09;;;;;;;1.70;1.27;;;;;;;;;;5010689;28;20574;-86
2023/07/20 01:06:43;;;;;;;2.00;1.52;;;;;;;;;;5013551;28;20228;-88
2023/07/20 01:09:15;;;;;;;2.15;1.42;;;;;;;;;;5011000;28;20210;-87
2023/07/20 01:11:47;;;;;;;1.40;1.23;;;;;;;;;;5007072;28;20224;-88
2023/07/20 01:14:18;;;;;;;1.13;1.10;;;;;;;;;;5005097;28;20223;-87
2023/07/20 01:16:45;;;;;;;1.50;1.40;;;;;;;;;;5006298;28;20220;-86
2023/07/20 01:19:14;;;;;;;5.47;1.30;;;;;;;;;;5005527;28;20260;-83
2023/07/20 01:21:45;;;;;;;8.27;1.23;;;;;;;;;;4993331;28;20206;-86
2023/07/20 01:24:19;;;;;;;2.45;1.83;;;;;;;;;;4992934;28;20677;-85
2023/07/20 01:26:59;;;;;;;1.67;1.10;;;;;;;;;;5003353;28;20200;-87
2023/07/20 01:29:36;;;;;;;4.00;1.52;;;;;;;;;;4997609;28;20189;-85
2023/07/20 01:32:07;;;;;;;1.45;1.30;;;;;;;;;;4992793;28;20220;-88
2023/07/20 01:34:35;;;;;;;3.40;1.85;;;;;;;;;;4994473;28;20272;-88
2023/07/20 01:37:02;;;;;;;2.17;1.75;;;;;;;;;;4993641;28;20237;-88
2023/07/20 01:39:30;;;;;;;1.38;1.27;;;;;;;;;;4993172;28;20213;-86
2023/07/20 01:41:57;;;;;;;4.88;1.77;;;;;;;;;;4994100;28;20229;-89
2023/07/20 01:44:25;;;;;;;1.17;0.93;;;;;;;;;;4993665;28;20228;-87
2023/07/20 01:46:52;;;;;;;2.10;1.73;;;;;;;;;;4993632;28;20293;-87
2023/07/20 01:49:21;;;;;;;3.47;1.58;;;;;;;;;;4995605;28;20284;-88
2023/07/20 01:51:50;;;;;;;5.88;1.60;;;;;;;;;;5013325;28;20320;-87
2023/07/20 01:54:17;;;;;;;1.60;1.50;;;;;;;;;;5011917;28;20197;-88
2023/07/20 01:56:46;;;;;;;4.35;1.55;;;;;;;;;;5013665;28;20286;-87
2023/07/20 01:59:17;;;;;;;7.07;1.40;;;;;;;;;;5013495;28;20228;-86
2023/07/20 02:01:44;;;;;;;3.72;1.52;;;;;;;;;;5015754;28;20211;-86
2023/07/20 02:04:11;;;;;;;1.08;1.08;;;;;;;;;;5013540;28;20199;-87
2023/07/20 02:06:41;;;;;;;3.20;1.27;;;;;;;;;;5012471;28;20615;-88
2023/07/20 02:09:08;;;;;;;3.20;1.20;;;;;;;;;;5012761;28;20196;-87
2023/07/20 02:11:34;;;;;;;2.67;1.40;;;;;;;;;;5012887;28;20263;-88
2023/07/20 02:14:01;;;;;;;4.00;1.10;;;;;;;;;;5012972;28;20196;-85
2023/07/20 02:16:29;;;;;;;3.40;1.67;;;;;;;;;;5012567;28;20212;-85
2023/07/20 02:18:58;;;;;;;1.52;1.45;;;;;;;;;;5012424;28;20732;-86
2023/07/20 02:21:25;;;;;;;3.50;1.38;;;;;;;;;;5012046;28;20240;-85
2023/07/20 02:23:58;;;;;;;3.95;1.80;;;;;;;;;;5012271;28;20300;-86
2023/07/20 02:26:25;;;;;;;4.07;1.50;;;;;;;;;;5016277;28;20249;-86
2023/07/20 02:28:53;;;;;;;2.58;1.23;;;;;;;;;;5019594;28;20262;-85
2023/07/20 02:31:20;;;;;;;4.70;1.45;;;;;;;;;;5017036;28;20231;-84
2023/07/20 02:33:47;;;;;;;2.63;1.88;;;;;;;;;;5017063;28;20195;-85
2023/07/20 02:36:16;;;;;;;4.68;2.05;;;;;;;;;;5016484;28;20275;-85
2023/07/20 02:38:43;;;;;;;1.42;1.35;;;;;;;;;;5016708;28;20232;-85
2023/07/20 02:41:12;;;;;;;4.78;2.08;;;;;;;;;;5013645;28;20610;-85
2023/07/20 02:43:39;;;;;;;3.58;1.52;;;;;;;;;;5016813;28;20229;-84
2023/07/20 02:46:06;;;;;;;1.42;1.40;;;;;;;;;;5017647;28;20204;-85
2023/07/20 02:48:33;;;;;;;3.95;1.70;;;;;;;;;;5015815;28;20578;-85
2023/07/20 02:51:00;;;;;;;1.73;1.42;;;;;;;;;;5012163;28;20217;-87
2023/07/20 02:53:27;;;;;;;2.08;1.50;;;;;;;;;;5015655;28;20207;-86
2023/07/20 02:55:54;;;;;;;1.10;1.10;;;;;;;;;;5011272;28;20335;-87
2023/07/20 02:58:26;;;;;;;6.43;1.20;;;;;;;;;;5011358;28;20232;-86
2023/07/20 03:00:53;;;;;;;3.13;1.88;;;;;;;;;;5011058;28;20284;-86
2023/07/20 03:03:20;;;;;;;4.30;2.80;;;;;;;;;;5011891;28;20216;-86
2023/07/20 03:05:47;;;;;;;1.95;1.42;;;;;;;;;;5011197;28;20288;-84
2023/07/20 03:08:14;;;;;;;5.20;2.35;;;;;;;;;;5011259;28;20209;-86
2023/07/20 03:10:41;;;;;;;2.17;1.60;;;;;;;;;;5012052;28;20563;-86
2023/07/20 03:13:09;;;;;;;6.63;1.90;;;;;;;;;;5007550;28;20230;-85
2023/07/20 03:15:37;;;;;;;5.47;2.00;;;;;;;;;;5011730;28;20219;-86
2023/07/20 03:18:04;;;;;;;3.00;1.42;;;;;;;;;;5011725;28;20665;-86
2023/07/20 03:20:32;;;;;;;2.58;1.50;;;;;;;;;;5011293;28;20262;-86
2023/07/20 03:22:59;;;;;;;7.60;1.58;;;;;;;;;;5010768;28;20199;-88
2023/07/20 03:25:25;;;;;;;6.90;2.08;;;;;;;;;;5011564;28;20226;-86
2023/07/20 03:27:53;;;;;;;4.43;1.52;;;;;;;;;;5010889;28;20204;-87
2023/07/20 03:30:20;;;;;;;2.95;1.80;;;;;;;;;;5010604;28;20235;-86
2023/07/20 03:32:49;;;;;;;9.05;2.20;;;;;;;;;;5010424;28;20673;-86
2023/07/20 03:35:17;;;;;;;4.05;1.77;;;;;;;;;;5010835;28;20280;-86
2023/07/20 03:37:44;;;;;;;6.00;2.13;;;;;;;;;;5010408;28;20235;-87
2023/07/20 03:40:11;;;;;;;3.67;2.00;;;;;;;;;;5010294;28;20205;-87
2023/07/20 03:42:38;;;;;;;3.03;2.42;;;;;;;;;;5010794;28;20201;-85
2023/07/20 03:45:06;;;;;;;3.25;1.95;;;;;;;;;;5010110;28;20207;-85
2023/07/20 03:47:33;;;;;;;2.33;1.70;;;;;;;;;;5010905;28;20705;-87
2023/07/20 03:50:03;;;;;;;3.28;2.30;;;;;;;;;;5010486;28;20201;-87
2023/07/20 03:52:30;;;;;;;4.05;2.00;;;;;;;;;;5009975;28;20205;-86
2023/07/20 03:54:58;;;;;;;3.38;1.80;;;;;;;;;;5010151;28;20307;-86
2023/07/20 03:57:24;;;;;;;1.70;1.63;;;;;;;;;;5010847;28;20254;-85
2023/07/20 03:59:52;;;;;;;3.13;2.25;;;;;;;;;;5009629;28;20239;-86
2023/07/20 04:02:19;;;;;;;3.22;1.90;;;;;;;;;;5010261;28;20211;-86
2023/07/20 04:04:46;;;;;;;3.70;2.05;;;;;;;;;;5010485;28;20197;-86
2023/07/20 04:07:15;;;;;;;3.08;2.13;;;;;;;;;;5010050;28;20224;-86
2023/07/20 04:09:42;;;;;;;5.05;2.22;;;;;;;;;;5010567;28;20219;-87
2023/07/20 04:12:08;;;;;;;3.78;2.53;;;;;;;;;;5010912;28;20294;-88
2023/07/20 04:14:35;;;;;;;3.22;1.88;;;;;;;;;;5010514;28;20197;-86
2023/07/20 04:17:03;;;;;;;4.30;1.63;;;;;;;;;;5011284;28;20208;-87
2023/07/20 04:19:30;;;;;;;2.55;1.52;;;;;;;;;;5012323;28;20235;-87
2023/07/20 04:21:59;;;;;;;1.58;1.58;;;;;;;;;;5010609;28;20289;-87
2023/07/20 04:24:27;;;;;;;3.38;1.75;;;;;;;;;;5010815;28;20749;-88
2023/07/20 04:26:54;;;;;;;3.08;1.70;;;;;;;;;;5011186;28;20251;-86
2023/07/20 04:29:21;;;;;;;1.40;1.30;;;;;;;;;;5009868;28;20204;-86
2023/07/20 04:31:48;;;;;;;4.40;1.60;;;;;;;;;;5010384;28;20253;-86
2023/07/20 04:34:16;;;;;;;1.33;1.23;;;;;;;;;;5010415;28;20205;-86
2023/07/20 04:36:44;;;;;;;1.85;1.45;;;;;;;;;;5010003;28;20239;-86
2023/07/20 04:39:12;;;;;;;2.10;1.63;;;;;;;;;;5010563;28;20732;-86
2023/07/20 04:41:44;;;;;;;3.83;1.55;;;;;;;;;;5010429;28;20291;-86
2023/07/20 04:44:11;;;;;;;3.22;1.70;;;;;;;;;;5010308;28;20700;-86
2023/07/20 04:46:39;;;;;;;6.53;1.98;;;;;;;;;;5010574;28;20568;-86
2023/07/20 04:49:06;;;;;;;2.58;1.67;;;;;;;;;;5008887;28;20207;-85
2023/07/20 04:51:35;;;;;;;3.38;1.67;;;;;;;;;;5009337;28;20600;-86
2023/07/20 04:54:02;;;;;;;7.32;1.90;;;;;;;;;;4997083;28;20264;-86
2023/07/20 04:56:33;;;;;;;1.80;1.70;;;;;;;;;;5000387;28;20675;-86
2023/07/20 04:59:01;;;;;;;3.67;2.03;;;;;;;;;;5002429;28;20789;-87
2023/07/20 05:01:30;;;;;;;1.85;1.75;;;;;;;;;;5001860;28;20681;-86
2023/07/20 05:03:58;;;;;;;3.50;1.70;;;;;;;;;;4998933;28;20537;-86
2023/07/20 05:06:25;;;;;;;3.05;1.90;;;;;;;;;;5009235;28;20197;-86
2023/07/20 05:08:53;;;;;;;2.22;1.95;;;;;;;;;;5009617;28;20675;-87
2023/07/20 05:11:20;;;;;;;1.77;1.67;;;;;;;;;;5009829;28;20639;-86
2023/07/20 05:13:47;;;;;;;4.28;1.73;;;;;;;;;;5010079;28;20737;-86
2023/07/20 05:16:15;;;;;;;2.90;2.05;;;;;;;;;;5012922;28;20223;-86
2023/07/20 05:18:43;;;;;;;5.13;1.60;;;;;;;;;;5013100;28;20236;-86
2023/07/20 05:21:10;;;;;;;1.58;1.48;;;;;;;;;;5013009;28;20211;-85
2023/07/20 05:23:37;;;;;;;4.60;1.83;;;;;;;;;;5013498;28;20295;-85
2023/07/20 05:26:04;;;;;;;2.38;1.50;;;;;;;;;;5013369;28;20204;-85
2023/07/20 05:28:32;;;;;;;5.38;1.67;;;;;;;;;;5013003;28;20258;-86
2023/07/20 05:31:00;;;;;;;1.80;1.70;;;;;;;;;;5013291;28;20649;-87
2023/07/20 05:33:32;;;;;;;2.17;1.60;;;;;;;;;;5017760;28;20200;-85
2023/07/20 05:36:05;;;;;;;3.70;2.10;;;;;;;;;;5016771;28;20601;-89
2023/07/20 05:38:33;;;;;;;4.60;1.90;;;;;;;;;;5013038;28;20617;-87
2023/07/20 05:41:03;;;;;;;3.83;2.05;;;;;;;;;;5013088;28;20212;-89
2023/07/20 05:43:31;;;;;;;1.88;1.60;;;;;;;;;;5012422;28;20286;-87
2023/07/20 05:46:00;;;;;;;1.83;1.73;;;;;;;;;;5012692;28;20227;-87
2023/07/20 05:48:29;;;;;;;1.50;1.45;;;;;;;;;;5012260;28;20197;-86
2023/07/20 05:50:56;;;;;;;1.92;1.70;;;;;;;;;;5012700;28;20597;-85
2023/07/20 05:53:22;;;;;;;2.15;1.85;;;;;;;;;;5010078;28;20201;-83
2023/07/20 05:55:55;;;;;;;1.95;1.85;;;;;;;;;;5003801;28;20297;-84
2023/07/20 05:58:24;;;;;;;1.73;1.42;;;;;;;;;;5012064;28;20204;-85
2023/07/20 06:00:56;;;;;;;8.95;2.45;;;;;;;;;;5010183;28;20240;-86
2023/07/20 06:03:24;;;;;;;5.00;1.38;;;;;;;;;;4991901;28;20744;-88
2023/07/20 06:05:59;;;;;;;2.28;1.80;;;;;;;;;;5005863;28;20224;-87
2023/07/20 06:08:26;;;;;;;4.32;2.15;;;;;;;;;;5009165;28;20529;-86
2023/07/20 06:10:57;;;;;;;4.82;2.15;;;;;;;;;;5006662;28;20291;-86
2023/07/20 06:13:25;;;;;;;4.68;1.85;;;;;;;;;;5003973;28;20669;-85
2023/07/20 06:16:01;;;;;;;2.08;1.73;;;;;;;;;;5012018;28;20696;-85
2023/07/20 06:18:45;;;;;;;5.05;1.58;;;;;;;;;;5016810;28;20216;-86
2023/07/20 06:21:16;;;;;;;3.15;2.13;;;;;;;;;;5030309;28;20227;-85
2023/07/20 06:23:44;;;;;;;2.22;1.70;;;;;;;;;;5013686;28;20247;-85
2023/07/20 06:26:11;;;;;;;1.52;1.40;;;;;;;;;;5011552;28;20604;-86
2023/07/20 06:28:38;;;;;;;2.97;1.73;;;;;;;;;;5011506;28;20227;-86
2023/07/20 06:31:09;;;;;;;1.60;1.50;;;;;;;;;;5010833;28;20225;-85
2023/07/20 06:33:36;;;;;;;1.70;1.58;;;;;;;;;;5010988;28;20232;-86
2023/07/20 06:36:03;;;;;;;6.93;1.63;;;;;;;;;;5010008;28;20220;-87
2023/07/20 06:38:32;;;;;;;2.45;1.52;;;;;;;;;;5010926;28;20224;-87
2023/07/20 06:40:59;;;;;;;3.17;1.63;;;;;;;;;;5010785;28;20228;-84
2023/07/20 06:43:26;;;;;;;2.72;1.85;;;;;;;;;;5011252;28;20243;-87
2023/07/20 06:45:54;;;;;;;1.80;1.67;;;;;;;;;;5010830;28;20231;-85
2023/07/20 06:48:21;;;;;;;1.88;1.77;;;;;;;;;;5009366;28;20314;-86
2023/07/20 06:50:48;;;;;;;3.38;1.80;;;;;;;;;;5010165;28;20240;-85
2023/07/20 06:53:15;;;;;;;3.58;1.95;;;;;;;;;;5010343;28;20382;-85
2023/07/20 06:55:45;;;;;;;2.53;1.50;;;;;;;;;;5010516;28;20240;-85
2023/07/20 06:58:12;;;;;;;10.52;1.70;;;;;;;;;;5009607;28;20224;-86
2023/07/20 07:00:39;;;;;;;6.97;2.13;;;;;;;;;;5006771;28;20333;-86
2023/07/20 07:03:07;;;;;;;2.03;1.63;;;;;;;;;;5010069;28;20236;-85
2023/07/20 07:05:37;;;;;;;3.95;1.80;;;;;;;;;;5007456;28;20228;-85
2023/07/20 07:08:05;;;;;;;3.03;1.60;;;;;;;;;;4996601;28;20240;-86
2023/07/20 07:10:32;;;;;;;4.38;2.15;;;;;;;;;;5009912;28;20295;-86
2023/07/20 07:13:01;;;;;;;3.90;2.15;;;;;;;;;;5009294;28;20312;-87
2023/07/20 07:15:28;;;;;;;2.60;1.75;;;;;;;;;;5010340;28;20239;-87
2023/07/20 07:17:55;;;;;;;3.92;1.90;;;;;;;;;;5009318;28;20264;-87
2023/07/20 07:20:23;;;;;;;2.13;1.80;;;;;;;;;;5008831;28;20235;-86
2023/07/20 07:22:53;;;;;;;8.35;1.80;;;;;;;;;;5010241;28;20232;-86
2023/07/20 07:25:20;;;;;;;7.30;2.15;;;;;;;;;;5009626;28;20282;-86
2023/07/20 07:27:47;;;;;;;2.08;1.98;;;;;;;;;;5009203;28;20230;-86
2023/07/20 07:30:15;;;;;;;2.88;2.33;;;;;;;;;;5009571;28;20320;-86
2023/07/20 07:32:42;;;;;;;3.15;2.17;;;;;;;;;;5009323;28;20236;-87
2023/07/20 07:35:09;;;;;;;3.45;2.08;;;;;;;;;;5009620;28;20268;-88
2023/07/20 07:37:37;;;;;;;1.90;1.77;;;;;;;;;;5009989;28;20232;-87
2023/07/20 07:40:06;;;;;;;2.08;1.98;;;;;;;;;;5009945;28;20335;-89
2023/07/20 07:42:33;;;;;;;4.60;1.83;;;;;;;;;;5009548;28;20763;-88
2023/07/20 07:45:01;;;;;;;2.95;1.90;;;;;;;;;;5009712;28;20228;-88
2023/07/20 07:47:30;;;;;;;7.28;2.50;;;;;;;;;;5009596;28;20290;-87
2023/07/20 07:49:57;;;;;;;1.80;1.58;;;;;;;;;;5009676;28;20228;-87
2023/07/20 07:52:25;;;;;;;1.83;1.83;;;;;;;;;;5010264;28;20336;-88
2023/07/20 07:54:53;;;;;;;2.17;1.85;;;;;;;;;;5010220;28;20256;-87
2023/07/20 07:57:20;;;;;;;4.70;2.13;;;;;;;;;;5008767;28;20228;-86
2023/07/20 07:59:47;;;;;;;2.13;1.92;;;;;;;;;;5010714;28;20736;-87
2023/07/20 08:02:14;;;;;;;6.35;2.35;;;;;;;;;;5009096;28;20398;-85
2023/07/20 08:04:43;;;;;;;2.72;2.53;;;;;;;;;;5009232;28;20230;-88
2023/07/20 08:07:11;;;;;;;3.17;2.15;;;;;;;;;;5009556;28;20255;-88
2023/07/20 08:09:38;;;;;;;4.10;2.28;;;;;;;;;;5010640;28;20228;-87
2023/07/20 08:12:06;;;;;;;2.20;2.00;;;;;;;;;;5015475;28;20231;-86
2023/07/20 08:14:40;;;;;;;6.82;2.30;;;;;;;;;;5014602;28;20228;-84
2023/07/20 08:17:08;;;;;;;6.20;2.28;;;;;;;;;;5021886;28;20250;-87
2023/07/20 08:19:37;;;;;;;2.30;1.70;;;;;;;;;;5020315;28;20324;-85
2023/07/20 08:22:07;;;;;;;4.25;1.75;;;;;;;;;;5018034;28;20232;-86
2023/07/20 08:24:34;;;;;;;3.28;1.30;;;;;;;;;;5009735;28;20216;-85
2023/07/20 08:27:01;;;;;;;1.63;1.50;;;;;;;;;;5008647;28;20294;-84
2023/07/20 08:29:28;;;;;;;3.95;1.50;;;;;;;;;;5009092;28;20219;-85
2023/07/20 08:31:55;;;;;;;3.00;1.60;;;;;;;;;;5008544;28;20224;-85
2023/07/20 08:34:22;;;;;;;3.42;1.48;;;;;;;;;;5008825;28;20235;-87
2023/07/20 08:36:49;;;;;;;3.35;1.58;;;;;;;;;;5009190;28;20266;-87
2023/07/20 08:39:18;;;;;;;3.60;1.70;;;;;;;;;;5008372;28;20238;-86
2023/07/20 08:41:46;;;;;;;2.17;0.80;;;;;;;;;;5008658;28;20645;-86
2023/07/20 08:44:14;;;;;;;1.33;1.30;;;;;;;;;;5008677;28;20219;-88
2023/07/20 08:46:42;;;;;;;5.50;1.52;;;;;;;;;;5008992;28;20715;-85
2023/07/20 08:49:11;;;;;;;5.00;1.40;;;;;;;;;;5009438;28;20232;-86
2023/07/20 08:51:39;;;;;;;2.97;1.35;;;;;;;;;;5013175;28;20298;-86
2023/07/20 08:54:07;;;;;;;9.93;1.65;;;;;;;;;;5012319;28;20228;-86
2023/07/20 08:56:36;;;;;;;1.40;1.17;;;;;;;;;;5013198;28;20665;-88
2023/07/20 08:59:04;;;;;;;6.97;2.13;;;;;;;;;;5013089;28;20328;-87
2023/07/20 09:01:33;;;;;;;1.38;1.38;;;;;;;;;;5013461;28;20299;-86
2023/07/20 09:04:01;;;;;;;2.05;1.45;;;;;;;;;;5012857;28;20279;-88
2023/07/20 09:06:29;;;;;;;4.10;1.38;;;;;;;;;;5013540;28;20644;-86
2023/07/20 09:08:56;;;;;;;1.83;1.23;;;;;;;;;;5013054;28;20667;-86
2023/07/20 09:11:23;;;;;;;1.33;1.17;;;;;;;;;;5012332;28;20700;-87
2023/07/20 09:14:03;;;;;;;2.75;1.30;;;;;;;;;;5013394;28;20732;-87
2023/07/20 09:16:30;;;;;;;4.85;1.08;;;;;;;;;;4997151;28;20378;-87
2023/07/20 09:18:59;;;;;;;3.08;1.20;;;;;;;;;;5004910;28;20235;-85
2023/07/20 09:21:30;;;;;;;2.92;1.23;;;;;;;;;;5012669;28;20235;-85
2023/07/20 09:24:00;;;;;;;3.35;1.05;;;;;;;;;;4997148;28;20240;-86
2023/07/20 09:26:26;;;;;;;1.45;1.40;;;;;;;;;;5004062;28;20651;-88
2023/07/20 09:28:54;;;;;;;1.30;1.20;;;;;;;;;;5012106;28;20232;-86
2023/07/20 09:31:23;;;;;;;1.75;1.30;;;;;;;;;;5012535;28;20233;-86
2023/07/20 09:33:52;;;;;;;3.33;1.20;;;;;;;;;;5012139;28;20614;-86
2023/07/20 09:36:19;;;;;;;3.60;0.95;;;;;;;;;;5013448;28;20324;-87
2023/07/20 09:38:47;;;;;;;1.90;1.10;;;;;;;;;;5015393;28;20282;-86
2023/07/20 09:41:17;;;;;;;4.18;1.27;;;;;;;;;;5012216;28;20258;-87
2023/07/20 09:43:42;;;;;;;1.65;1.45;;;;;;;;;;5012527;28;20223;-88
2023/07/20 09:46:10;;;;;;;1.88;1.30;;;;;;;;;;5011447;28;20224;-89
2023/07/20 09:48:38;;;;;;;4.28;1.88;;;;;;;;;;5012546;28;20397;-88
2023/07/20 09:51:06;;;;;;;2.60;1.35;;;;;;;;;;5017605;28;20231;-88
2023/07/20 09:53:33;;;;;;;3.97;1.40;;;;;;;;;;5024514;28;20240;-88
2023/07/20 09:56:00;;;;;;;1.88;1.50;;;;;;;;;;5030360;28;20263;-87
2023/07/20 09:58:28;;;;;;;2.58;1.20;;;;;;;;;;5015315;28;20366;-87
2023/07/20 10:00:58;;;;;;;5.80;2.17;;;;;;;;;;5011357;28;20239;-86
2023/07/20 10:03:29;;;;;;;1.50;1.02;;;;;;;;;;5013006;28;20251;-87
2023/07/20 10:06:04;;;;;;;7.72;1.30;;;;;;;;;;5013831;28;20260;-88
2023/07/20 10:08:33;;;;;;;4.47;1.55;;;;;;;;;;5012990;28;20293;-88
2023/07/20 10:11:03;;;;;;;5.32;1.20;;;;;;;;;;5015543;28;20228;-88
2023/07/20 10:13:30;;;;;;;3.80;1.70;;;;;;;;;;5022066;28;20231;-87
2023/07/20 10:16:00;;;;;;;1.73;0.90;;;;;;;;;;5022573;28;20235;-89
2023/07/20 10:18:30;;;;;;;3.88;1.33;;;;;;;;;;5023514;28;20225;-87
2023/07/20 10:21:01;;;;;;;2.50;1.02;;;;;;;;;;5017951;28;20240;-87
2023/07/20 10:23:30;;;;;;;5.45;1.13;;;;;;;;;;5017548;28;20603;-87
2023/07/20 10:25:58;;;;;;;5.40;1.20;;;;;;;;;;5016573;28;20234;-86
2023/07/20 10:28:25;;;;;;;2.15;1.20;;;;;;;;;;5017083;28;20374;-85
2023/07/20 10:30:52;;;;;;;1.55;1.33;;;;;;;;;;5018267;28;20220;-87
2023/07/20 10:33:21;;;;;;;3.92;1.20;;;;;;;;;;5015669;28;20224;-89
2023/07/20 10:35:55;;;;;;;2.63;1.00;;;;;;;;;;5013399;28;20597;-88
2023/07/20 10:38:38;;;;;;;3.47;1.15;;;;;;;;;;5012002;28;20266;-86
2023/07/20 10:41:16;;;;;;;4.00;1.13;;;;;;;;;;5011613;28;20287;-86
2023/07/20 10:43:43;;;;;;;3.90;1.90;;;;;;;;;;5011616;28;20278;-86
2023/07/20 10:46:12;;;;;;;3.58;1.10;;;;;;;;;;5010950;28;20220;-87
2023/07/20 10:48:59;;;;;;;3.10;1.50;;;;;;;;;;5012194;28;20248;-89
2023/07/20 10:51:27;;;;;;;3.95;1.92;;;;;;;;;;5013957;28;20232;-89
2023/07/20 10:53:58;;;;;;;5.45;4.50;;;;;;;;;;5013567;28;20244;-87
2023/07/20 10:56:29;;;;;;;3.28;1.60;;;;;;;;;;5013685;28;20248;-89
2023/07/20 10:58:59;;;;;;;4.53;2.80;;;;;;;;;;5014298;28;20778;-87
2023/07/20 11:01:29;;;;;;;6.32;2.60;;;;;;;;;;5011887;28;20237;-88
2023/07/20 11:04:00;;;;;;;4.25;1.30;;;;;;;;;;5012188;28;20835;-88
2023/07/20 11:06:34;;;;;;;3.08;2.78;;;;;;;;;;5012839;28;20251;-88
2023/07/20 11:09:06;;;;;;;3.95;2.00;;;;;;;;;;5010722;28;20689;-88
2023/07/20 11:11:35;;;;;;;2.83;2.58;;;;;;;;;;5011001;28;20221;-89
2023/07/20 11:14:03;;;;;;;8.73;3.03;;;;;;;;;;5011277;28;20228;-89
2023/07/20 11:16:34;;;;;;;7.03;3.95;;;;;;;;;;5010360;28;20258;-86
2023/07/20 11:19:02;;;;;;;6.88;3.28;;;;;;;;;;5010091;28;20228;-87
2023/07/20 11:21:30;;;;;;;4.10;3.50;;;;;;;;;;5011189;28;20298;-90
2023/07/20 11:23:57;;;;;;;6.53;2.80;;;;;;;;;;5010983;28;20266;-86
2023/07/20 11:26:24;;;;;;;4.95;4.35;;;;;;;;;;5010462;28;20236;-87
2023/07/20 11:28:52;;;;;;;2.95;2.35;;;;;;;;;;5010581;28;20301;-87
2023/07/20 11:31:20;;;;;;;7.78;2.72;;;;;;;;;;5009383;28;20282;-86
2023/07/20 11:33:47;;;;;;;4.68;4.10;;;;;;;;;;5010080;28;20250;-86
2023/07/20 11:36:15;;;;;;;25.90;14.88;;;;;;;;;;5009873;28;20308;-88
2023/07/20 11:38:44;;;;;;;5.75;2.65;;;;;;;;;;5009577;28;20219;-87
2023/07/20 11:41:12;;;;;;;2.58;2.38;;;;;;;;;;5009437;28;20240;-87
2023/07/20 11:43:40;;;;;;;4.15;3.03;;;;;;;;;;5009730;28;20728;-86
2023/07/20 11:46:10;;;;;;;6.88;2.53;;;;;;;;;;5009215;28;20306;-87
2023/07/20 11:48:37;;;;;;;5.65;3.22;;;;;;;;;;4998944;28;20306;-86
2023/07/20 11:51:06;;;;;;;11.05;5.97;;;;;;;;;;5008759;28;20290;-87
2023/07/20 11:53:34;;;;;;;12.82;7.88;;;;;;;;;;5009920;28;20333;-86
2023/07/20 11:56:01;;;;;;;2.47;2.38;;;;;;;;;;5007165;28;20250;-86
2023/07/20 11:58:29;;;;;;;30.48;15.20;;;;;;;;;;5010233;28;20235;-87
2023/07/20 12:00:57;;;;;;;5.10;3.70;;;;;;;;;;5008815;28;20332;-86
2023/07/20 12:03:26;;;;;;;3.15;2.50;;;;;;;;;;5010156;28;20621;-87
2023/07/20 12:05:53;;;;;;;4.10;2.42;;;;;;;;;;5009036;28;20228;-86
2023/07/20 12:08:20;;;;;;;3.35;2.58;;;;;;;;;;5009818;28;20228;-86
2023/07/20 12:10:47;;;;;;;2.58;1.92;;;;;;;;;;5009909;28;20299;-88
2023/07/20 12:13:14;;;;;;;2.28;1.95;;;;;;;;;;5009560;28;20624;-87
2023/07/20 12:15:41;;;;;;;2.08;1.98;;;;;;;;;;5008837;28;20224;-86
2023/07/20 12:18:08;;;;;;;4.47;2.08;;;;;;;;;;5009150;28;20298;-86
2023/07/20 12:20:38;;;;;;;2.38;1.48;;;;;;;;;;5009511;28;20323;-89
2023/07/20 12:23:06;;;;;;;2.00;1.80;;;;;;;;;;5010796;28;20328;-87
2023/07/20 12:25:38;;;;;;;2.25;1.85;;;;;;;;;;5016138;28;20228;-87
2023/07/20 12:28:06;;;;;;;1.75;1.58;;;;;;;;;;5015947;28;20228;-85
2023/07/20 12:30:33;;;;;;;1.60;1.50;;;;;;;;;;5014337;28;20231;-86
2023/07/20 12:33:03;;;;;;;3.13;1.33;;;;;;;;;;5017617;28;20240;-87
2023/07/20 12:35:31;;;;;;;1.50;1.40;;;;;;;;;;5019552;28;20224;-87
2023/07/20 12:38:00;;;;;;;2.63;1.58;;;;;;;;;;5007172;28;20231;-86
2023/07/20 12:40:27;;;;;;;2.08;1.27;;;;;;;;;;5030544;28;20239;-86
2023/07/20 12:42:54;;;;;;;2.10;1.90;;;;;;;;;;5024091;28;20236;-88
2023/07/20 12:45:21;;;;;;;4.97;1.63;;;;;;;;;;5025190;28;20243;-89
2023/07/20 12:47:49;;;;;;;3.47;2.05;;;;;;;;;;5019461;28;20236;-86
2023/07/20 12:50:16;;;;;;;4.53;1.63;;;;;;;;;;5015294;28;20681;-85
2023/07/20 12:52:44;;;;;;;4.65;1.60;;;;;;;;;;5015423;28;20221;-87
2023/07/20 12:55:13;;;;;;;1.25;1.23;;;;;;;;;;5016079;28;20240;-87
2023/07/20 12:57:39;;;;;;;5.35;4.53;;;;;;;;;;5017719;28;20220;-86
2023/07/20 13:00:09;;;;;;;2.17;1.83;;;;;;;;;;5018227;28;20673;-88
2023/07/20 13:02:36;;;;;;;2.67;1.50;;;;;;;;;;5021713;28;20254;-86
2023/07/20 13:05:04;;;;;;;1.60;1.50;;;;;;;;;;5021520;28;20225;-87
2023/07/20 13:07:33;;;;;;;2.20;1.65;;;;;;;;;;5024592;28;20232;-88
2023/07/20 13:10:00;;;;;;;2.47;1.73;;;;;;;;;;5028126;28;20213;-88
2023/07/20 13:12:30;;;;;;;3.78;1.48;;;;;;;;;;5027611;28;20287;-87
2023/07/20 13:15:00;;;;;;;1.95;1.48;;;;;;;;;;5016403;28;20220;-88
2023/07/20 13:17:27;;;;;;;3.00;1.48;;;;;;;;;;5016080;28;20213;-87
2023/07/20 13:19:54;;;;;;;1.52;1.42;;;;;;;;;;5018036;28;20255;-88
2023/07/20 13:22:23;;;;;;;1.58;1.45;;;;;;;;;;5016859;28;20247;-88
2023/07/20 13:24:52;;;;;;;1.30;1.20;;;;;;;;;;5026046;28;20224;-86
2023/07/20 13:27:20;;;;;;;3.08;1.50;;;;;;;;;;5035489;28;20228;-86
2023/07/20 13:29:49;;;;;;;5.72;2.05;;;;;;;;;;5018461;28;20225;-87
2023/07/20 13:32:17;;;;;;;1.58;1.30;;;;;;;;;;5016225;28;20224;-86
2023/07/20 13:34:44;;;;;;;7.35;1.42;;;;;;;;;;5014960;28;20247;-88
2023/07/20 13:37:15;;;;;;;2.30;2.10;;;;;;;;;;5011840;28;20299;-88
2023/07/20 13:39:43;;;;;;;2.90;1.90;;;;;;;;;;4997940;28;20263;-88
2023/07/20 13:42:11;;;;;;;2.20;1.42;;;;;;;;;;5020802;28;20240;-86
2023/07/20 13:44:38;;;;;;;1.42;1.33;;;;;;;;;;5013289;28;20686;-87
2023/07/20 13:47:09;;;;;;;2.33;1.48;;;;;;;;;;5013096;28;20887;-87
2023/07/20 13:49:38;;;;;;;5.70;1.15;;;;;;;;;;5012747;28;20597;-86
2023/07/20 13:52:06;;;;;;;2.00;1.35;;;;;;;;;;5012636;28;20224;-88
2023/07/20 13:54:34;;;;;;;1.92;1.20;;;;;;;;;;5012503;28;20383;-88
2023/07/20 13:57:01;;;;;;;1.42;1.33;;;;;;;;;;5012614;28;20235;-87
2023/07/20 13:59:29;;;;;;;3.97;1.30;;;;;;;;;;5011635;28;20225;-86
2023/07/20 14:01:56;;;;;;;5.25;1.25;;;;;;;;;;5012691;28;20304;-87
2023/07/20 14:04:27;;;;;;;1.30;1.20;;;;;;;;;;5012117;28;20235;-87
2023/07/20 14:06:54;;;;;;;4.78;1.33;;;;;;;;;;5012740;28;20235;-87
2023/07/20 14:09:21;;;;;;;3.55;1.25;;;;;;;;;;5011774;28;20628;-85
2023/07/20 14:11:48;;;;;;;1.90;1.30;;;;;;;;;;5012080;28;20223;-86
2023/07/20 14:14:16;;;;;;;0.93;0.93;;;;;;;;;;5010884;28;20225;-87
2023/07/20 14:16:43;;;;;;;2.20;1.42;;;;;;;;;;5012405;28;20225;-86
2023/07/20 14:19:10;;;;;;;1.42;1.10;;;;;;;;;;5011410;28;20321;-86
2023/07/20 14:21:38;;;;;;;4.18;1.27;;;;;;;;;;5011332;28;20243;-86
2023/07/20 14:24:06;;;;;;;2.67;1.27;;;;;;;;;;5010353;28;20687;-87
2023/07/20 14:26:35;;;;;;;7.47;1.35;;;;;;;;;;5011788;28;20243;-85
2023/07/20 14:29:02;;;;;;;4.20;1.00;;;;;;;;;;5011340;28;20565;-86
2023/07/20 14:31:29;;;;;;;3.95;1.13;;;;;;;;;;5011842;28;20287;-87
2023/07/20 14:33:57;;;;;;;1.17;1.00;;;;;;;;;;5012126;28;20254;-82
2023/07/20 14:36:25;;;;;;;0.90;0.90;;;;;;;;;;5002477;28;20217;-86
2023/07/20 14:38:56;;;;;;;1.67;1.30;;;;;;;;;;4990703;28;20229;-87
2023/07/20 14:41:26;;;;;;;4.43;1.25;;;;;;;;;;4991881;28;20241;-87
2023/07/20 14:43:53;;;;;;;3.13;1.00;;;;;;;;;;4991088;28;20259;-86
2023/07/20 14:46:20;;;;;;;2.60;1.30;;;;;;;;;;4996168;28;20293;-87
2023/07/20 14:48:48;;;;;;;4.38;1.25;;;;;;;;;;5007294;28;20228;-87